sensor_id;sensor_type;location;lat;lon;timestamp;P1;durP1;ratioP1;P2;durP2;ratioP2
31262;SDS011;17892;52.080;9.006;2022-10-16T00:01:22;2.30;;;1.25;;
31262;SDS011;17892;52.080;9.006;2022-10-16T00:03:53;1.48;;;0.80;;
31262;SDS011;17892;52.080;9.006;2022-10-16T00:06:21;1.92;;;1.20;;
31262;SDS011;17892;52.080;9.006;2022-10-16T00:08:48;3.55;;;1.52;;
31262;SDS011;17892;52.080;9.006;2022-10-16T00:11:18;3.78;;;1.20;;
31262;SDS011;17892;52.080;9.006;2022-10-16T00:13:49;1.50;;;1.02;;
31262;SDS011;17892;52.080;9.006;2022-10-16T00:16:19;3.70;;;1.02;;
31262;SDS011;17892;52.080;9.006;2022-10-16T00:18:44;2.28;;;1.05;;
31262;SDS011;17892;52.080;9.006;2022-10-16T00:21:17;1.23;;;0.85;;
31262;SDS011;17892;52.080;9.006;2022-10-16T00:23:46;2.80;;;1.17;;
31262;SDS011;17892;52.080;9.006;2022-10-16T00:26:16;1.67;;;1.27;;
31262;SDS011;17892;52.080;9.006;2022-10-16T00:28:45;1.63;;;0.93;;
31262;SDS011;17892;52.080;9.006;2022-10-16T00:31:12;5.32;;;1.40;;
31262;SDS011;17892;52.080;9.006;2022-10-16T00:33:39;3.03;;;1.10;;
31262;SDS011;17892;52.080;9.006;2022-10-16T00:36:05;1.35;;;0.77;;
31262;SDS011;17892;52.080;9.006;2022-10-16T00:38:34;2.55;;;0.95;;
31262;SDS011;17892;52.080;9.006;2022-10-16T00:41:00;3.67;;;0.85;;
31262;SDS011;17892;52.080;9.006;2022-10-16T00:43:33;3.90;;;1.05;;
31262;SDS011;17892;52.080;9.006;2022-10-16T00:51:37;5.65;;;1.63;;
31262;SDS011;17892;52.080;9.006;2022-10-16T00:54:18;1.40;;;1.00;;
31262;SDS011;17892;52.080;9.006;2022-10-16T00:56:47;1.92;;;1.00;;
31262;SDS011;17892;52.080;9.006;2022-10-16T00:59:18;4.00;;;1.67;;
31262;SDS011;17892;52.080;9.006;2022-10-16T01:01:51;2.28;;;1.10;;
31262;SDS011;17892;52.080;9.006;2022-10-16T01:04:17;3.70;;;0.95;;
31262;SDS011;17892;52.080;9.006;2022-10-16T01:12:58;2.53;;;0.80;;
31262;SDS011;17892;52.080;9.006;2022-10-16T01:15:51;4.20;;;1.73;;
31262;SDS011;17892;52.080;9.006;2022-10-16T01:18:45;5.15;;;1.15;;
31262;SDS011;17892;52.080;9.006;2022-10-16T01:35:32;1.63;;;0.90;;
31262;SDS011;17892;52.080;9.006;2022-10-16T01:38:04;4.32;;;1.10;;
31262;SDS011;17892;52.080;9.006;2022-10-16T01:40:46;4.18;;;1.35;;
31262;SDS011;17892;52.080;9.006;2022-10-16T01:43:21;1.73;;;0.88;;
31262;SDS011;17892;52.080;9.006;2022-10-16T01:45:52;4.93;;;1.27;;
31262;SDS011;17892;52.080;9.006;2022-10-16T01:48:18;2.22;;;1.20;;
31262;SDS011;17892;52.080;9.006;2022-10-16T01:50:50;3.30;;;1.70;;
31262;SDS011;17892;52.080;9.006;2022-10-16T01:53:26;3.13;;;1.02;;
31262;SDS011;17892;52.080;9.006;2022-10-16T01:55:52;2.97;;;0.88;;
31262;SDS011;17892;52.080;9.006;2022-10-16T01:58:20;2.03;;;0.95;;
31262;SDS011;17892;52.080;9.006;2022-10-16T02:00:48;5.03;;;1.13;;
31262;SDS011;17892;52.080;9.006;2022-10-16T02:03:16;3.42;;;1.30;;
31262;SDS011;17892;52.080;9.006;2022-10-16T02:05:54;8.30;;;1.85;;
31262;SDS011;17892;52.080;9.006;2022-10-16T02:08:22;3.88;;;1.15;;
31262;SDS011;17892;52.080;9.006;2022-10-16T02:10:51;1.13;;;0.70;;
31262;SDS011;17892;52.080;9.006;2022-10-16T02:13:22;1.73;;;1.10;;
31262;SDS011;17892;52.080;9.006;2022-10-16T02:15:54;1.83;;;1.10;;
31262;SDS011;17892;52.080;9.006;2022-10-16T02:18:20;3.83;;;1.15;;
31262;SDS011;17892;52.080;9.006;2022-10-16T02:21:00;3.22;;;1.75;;
31262;SDS011;17892;52.080;9.006;2022-10-16T02:26:52;2.85;;;1.80;;
31262;SDS011;17892;52.080;9.006;2022-10-16T02:29:47;5.70;;;1.63;;
31262;SDS011;17892;52.080;9.006;2022-10-16T02:32:19;5.47;;;1.52;;
31262;SDS011;17892;52.080;9.006;2022-10-16T02:34:48;3.40;;;1.73;;
31262;SDS011;17892;52.080;9.006;2022-10-16T02:37:16;6.15;;;1.50;;
31262;SDS011;17892;52.080;9.006;2022-10-16T02:39:43;1.33;;;0.88;;
31262;SDS011;17892;52.080;9.006;2022-10-16T02:42:12;1.77;;;1.00;;
31262;SDS011;17892;52.080;9.006;2022-10-16T02:44:39;2.55;;;1.10;;
31262;SDS011;17892;52.080;9.006;2022-10-16T02:47:05;2.03;;;0.90;;
31262;SDS011;17892;52.080;9.006;2022-10-16T02:49:31;2.47;;;1.42;;
31262;SDS011;17892;52.080;9.006;2022-10-16T02:51:56;3.40;;;1.05;;
31262;SDS011;17892;52.080;9.006;2022-10-16T02:54:22;3.08;;;1.50;;
31262;SDS011;17892;52.080;9.006;2022-10-16T02:56:48;3.00;;;1.70;;
31262;SDS011;17892;52.080;9.006;2022-10-16T02:59:14;4.05;;;1.42;;
31262;SDS011;17892;52.080;9.006;2022-10-16T03:01:40;1.85;;;0.95;;
31262;SDS011;17892;52.080;9.006;2022-10-16T03:04:06;2.80;;;1.30;;
31262;SDS011;17892;52.080;9.006;2022-10-16T03:06:32;3.47;;;2.05;;
31262;SDS011;17892;52.080;9.006;2022-10-16T03:08:58;7.95;;;1.98;;
31262;SDS011;17892;52.080;9.006;2022-10-16T03:11:23;2.67;;;1.42;;
31262;SDS011;17892;52.080;9.006;2022-10-16T03:13:49;3.45;;;1.38;;
31262;SDS011;17892;52.080;9.006;2022-10-16T03:16:15;3.60;;;1.40;;
31262;SDS011;17892;52.080;9.006;2022-10-16T03:18:41;4.10;;;1.73;;
31262;SDS011;17892;52.080;9.006;2022-10-16T03:21:06;5.32;;;1.70;;
31262;SDS011;17892;52.080;9.006;2022-10-16T03:23:32;6.60;;;2.03;;
31262;SDS011;17892;52.080;9.006;2022-10-16T03:25:58;3.20;;;2.00;;
31262;SDS011;17892;52.080;9.006;2022-10-16T03:28:24;2.80;;;1.92;;
31262;SDS011;17892;52.080;9.006;2022-10-16T03:30:49;3.60;;;1.83;;
31262;SDS011;17892;52.080;9.006;2022-10-16T03:33:15;3.25;;;1.80;;
31262;SDS011;17892;52.080;9.006;2022-10-16T03:35:41;3.40;;;1.40;;
31262;SDS011;17892;52.080;9.006;2022-10-16T03:38:07;5.78;;;1.77;;
31262;SDS011;17892;52.080;9.006;2022-10-16T03:40:32;5.50;;;1.65;;
31262;SDS011;17892;52.080;9.006;2022-10-16T03:42:58;3.75;;;1.70;;
31262;SDS011;17892;52.080;9.006;2022-10-16T03:45:24;2.65;;;1.67;;
31262;SDS011;17892;52.080;9.006;2022-10-16T03:47:51;6.18;;;2.00;;
31262;SDS011;17892;52.080;9.006;2022-10-16T03:50:16;3.97;;;1.77;;
31262;SDS011;17892;52.080;9.006;2022-10-16T03:52:42;4.93;;;2.13;;
31262;SDS011;17892;52.080;9.006;2022-10-16T03:55:08;4.45;;;1.98;;
31262;SDS011;17892;52.080;9.006;2022-10-16T03:57:34;3.33;;;1.95;;
31262;SDS011;17892;52.080;9.006;2022-10-16T04:03:40;2.65;;;1.35;;
31262;SDS011;17892;52.080;9.006;2022-10-16T04:06:06;4.43;;;1.70;;
31262;SDS011;17892;52.080;9.006;2022-10-16T04:08:32;2.67;;;1.23;;
31262;SDS011;17892;52.080;9.006;2022-10-16T04:11:00;3.38;;;1.48;;
31262;SDS011;17892;52.080;9.006;2022-10-16T04:13:26;3.70;;;2.08;;
31262;SDS011;17892;52.080;9.006;2022-10-16T04:15:52;1.83;;;1.52;;
31262;SDS011;17892;52.080;9.006;2022-10-16T04:18:17;3.60;;;1.27;;
31262;SDS011;17892;52.080;9.006;2022-10-16T04:20:43;5.10;;;1.95;;
31262;SDS011;17892;52.080;9.006;2022-10-16T04:23:09;6.10;;;1.40;;
31262;SDS011;17892;52.080;9.006;2022-10-16T04:25:34;2.55;;;1.38;;
31262;SDS011;17892;52.080;9.006;2022-10-16T04:28:00;5.55;;;1.60;;
31262;SDS011;17892;52.080;9.006;2022-10-16T04:30:26;7.90;;;2.22;;
31262;SDS011;17892;52.080;9.006;2022-10-16T04:32:51;3.25;;;1.17;;
31262;SDS011;17892;52.080;9.006;2022-10-16T04:35:18;2.33;;;1.23;;
31262;SDS011;17892;52.080;9.006;2022-10-16T04:37:46;3.40;;;1.40;;
31262;SDS011;17892;52.080;9.006;2022-10-16T04:40:12;3.25;;;1.15;;
31262;SDS011;17892;52.080;9.006;2022-10-16T04:42:38;5.50;;;2.03;;
31262;SDS011;17892;52.080;9.006;2022-10-16T04:45:04;3.90;;;1.42;;
31262;SDS011;17892;52.080;9.006;2022-10-16T04:47:31;3.55;;;1.52;;
31262;SDS011;17892;52.080;9.006;2022-10-16T04:49:57;3.33;;;1.08;;
31262;SDS011;17892;52.080;9.006;2022-10-16T04:52:23;3.13;;;1.35;;
31262;SDS011;17892;52.080;9.006;2022-10-16T04:54:50;3.15;;;1.17;;
31262;SDS011;17892;52.080;9.006;2022-10-16T04:57:16;4.97;;;1.70;;
31262;SDS011;17892;52.080;9.006;2022-10-16T04:59:42;2.08;;;0.90;;
31262;SDS011;17892;52.080;9.006;2022-10-16T05:02:08;4.45;;;1.00;;
31262;SDS011;17892;52.080;9.006;2022-10-16T05:04:33;2.17;;;0.90;;
31262;SDS011;17892;52.080;9.006;2022-10-16T05:06:59;1.00;;;0.77;;
31262;SDS011;17892;52.080;9.006;2022-10-16T05:09:25;14.38;;;1.73;;
31262;SDS011;17892;52.080;9.006;2022-10-16T05:11:50;2.72;;;1.13;;
31262;SDS011;17892;52.080;9.006;2022-10-16T05:14:16;1.13;;;0.70;;
31262;SDS011;17892;52.080;9.006;2022-10-16T05:16:42;1.63;;;0.82;;
31262;SDS011;17892;52.080;9.006;2022-10-16T05:19:08;3.70;;;1.30;;
31262;SDS011;17892;52.080;9.006;2022-10-16T05:21:34;1.10;;;0.70;;
31262;SDS011;17892;52.080;9.006;2022-10-16T05:23:59;2.28;;;0.90;;
31262;SDS011;17892;52.080;9.006;2022-10-16T05:26:25;1.75;;;0.70;;
31262;SDS011;17892;52.080;9.006;2022-10-16T05:28:51;4.10;;;0.63;;
31262;SDS011;17892;52.080;9.006;2022-10-16T05:31:16;2.08;;;1.05;;
31262;SDS011;17892;52.080;9.006;2022-10-16T05:33:42;2.30;;;1.00;;
31262;SDS011;17892;52.080;9.006;2022-10-16T05:36:09;4.97;;;1.13;;
31262;SDS011;17892;52.080;9.006;2022-10-16T05:38:35;1.52;;;1.10;;
31262;SDS011;17892;52.080;9.006;2022-10-16T05:41:02;0.75;;;0.50;;
31262;SDS011;17892;52.080;9.006;2022-10-16T05:43:30;2.85;;;1.40;;
31262;SDS011;17892;52.080;9.006;2022-10-16T05:45:57;1.85;;;1.13;;
31262;SDS011;17892;52.080;9.006;2022-10-16T05:48:29;1.50;;;0.60;;
31262;SDS011;17892;52.080;9.006;2022-10-16T05:50:56;1.00;;;0.50;;
31262;SDS011;17892;52.080;9.006;2022-10-16T05:53:28;0.80;;;0.70;;
31262;SDS011;17892;52.080;9.006;2022-10-16T05:55:56;0.98;;;0.70;;
31262;SDS011;17892;52.080;9.006;2022-10-16T05:58:23;1.70;;;0.68;;
31262;SDS011;17892;52.080;9.006;2022-10-16T06:00:57;3.38;;;0.47;;
31262;SDS011;17892;52.080;9.006;2022-10-16T06:03:26;1.13;;;0.70;;
31262;SDS011;17892;52.080;9.006;2022-10-16T06:05:52;2.00;;;0.52;;
31262;SDS011;17892;52.080;9.006;2022-10-16T06:08:19;1.33;;;0.70;;
31262;SDS011;17892;52.080;9.006;2022-10-16T06:10:46;1.50;;;0.73;;
31262;SDS011;17892;52.080;9.006;2022-10-16T06:13:13;1.50;;;0.75;;
31262;SDS011;17892;52.080;9.006;2022-10-16T06:15:40;2.65;;;0.50;;
31262;SDS011;17892;52.080;9.006;2022-10-16T06:18:07;2.67;;;1.00;;
31262;SDS011;17892;52.080;9.006;2022-10-16T06:20:34;6.57;;;1.42;;
31262;SDS011;17892;52.080;9.006;2022-10-16T06:23:02;0.98;;;0.50;;
31262;SDS011;17892;52.080;9.006;2022-10-16T06:25:29;1.05;;;0.30;;
31262;SDS011;17892;52.080;9.006;2022-10-16T06:27:57;1.33;;;0.50;;
31262;SDS011;17892;52.080;9.006;2022-10-16T06:30:23;0.85;;;0.60;;
31262;SDS011;17892;52.080;9.006;2022-10-16T06:32:49;1.75;;;0.43;;
31262;SDS011;17892;52.080;9.006;2022-10-16T06:35:14;1.30;;;0.73;;
31262;SDS011;17892;52.080;9.006;2022-10-16T06:37:40;2.47;;;0.88;;
31262;SDS011;17892;52.080;9.006;2022-10-16T06:40:06;1.25;;;0.52;;
31262;SDS011;17892;52.080;9.006;2022-10-16T06:42:32;2.30;;;1.23;;
31262;SDS011;17892;52.080;9.006;2022-10-16T06:44:58;0.88;;;0.52;;
31262;SDS011;17892;52.080;9.006;2022-10-16T06:47:23;0.90;;;0.40;;
31262;SDS011;17892;52.080;9.006;2022-10-16T06:49:49;1.40;;;0.40;;
31262;SDS011;17892;52.080;9.006;2022-10-16T06:52:15;1.50;;;0.60;;
31262;SDS011;17892;52.080;9.006;2022-10-16T06:54:40;2.00;;;0.45;;
31262;SDS011;17892;52.080;9.006;2022-10-16T06:57:06;0.93;;;0.40;;
31262;SDS011;17892;52.080;9.006;2022-10-16T06:59:32;4.28;;;0.40;;
31262;SDS011;17892;52.080;9.006;2022-10-16T07:01:58;0.98;;;0.52;;
31262;SDS011;17892;52.080;9.006;2022-10-16T07:04:23;0.82;;;0.50;;
31262;SDS011;17892;52.080;9.006;2022-10-16T07:06:49;1.98;;;0.45;;
31262;SDS011;17892;52.080;9.006;2022-10-16T07:09:16;1.40;;;0.50;;
31262;SDS011;17892;52.080;9.006;2022-10-16T07:11:42;1.45;;;0.80;;
31262;SDS011;17892;52.080;9.006;2022-10-16T07:14:12;0.40;;;0.30;;
31262;SDS011;17892;52.080;9.006;2022-10-16T07:16:42;1.48;;;0.52;;
31262;SDS011;17892;52.080;9.006;2022-10-16T07:19:08;0.75;;;0.55;;
31262;SDS011;17892;52.080;9.006;2022-10-16T07:21:36;0.55;;;0.30;;
31262;SDS011;17892;52.080;9.006;2022-10-16T07:24:03;0.45;;;0.30;;
31262;SDS011;17892;52.080;9.006;2022-10-16T07:26:32;0.70;;;0.30;;
31262;SDS011;17892;52.080;9.006;2022-10-16T07:29:00;0.60;;;0.30;;
31262;SDS011;17892;52.080;9.006;2022-10-16T07:31:26;1.02;;;0.50;;
31262;SDS011;17892;52.080;9.006;2022-10-16T07:33:52;0.50;;;0.40;;
31262;SDS011;17892;52.080;9.006;2022-10-16T07:36:19;0.70;;;0.30;;
31262;SDS011;17892;52.080;9.006;2022-10-16T07:38:45;1.33;;;0.45;;
31262;SDS011;17892;52.080;9.006;2022-10-16T07:41:16;0.98;;;0.43;;
31262;SDS011;17892;52.080;9.006;2022-10-16T07:43:51;1.48;;;0.20;;
31262;SDS011;17892;52.080;9.006;2022-10-16T07:46:18;0.85;;;0.30;;
31262;SDS011;17892;52.080;9.006;2022-10-16T07:48:45;0.20;;;0.13;;
31262;SDS011;17892;52.080;9.006;2022-10-16T07:51:13;0.50;;;0.25;;
31262;SDS011;17892;52.080;9.006;2022-10-16T07:53:44;1.73;;;0.20;;
31262;SDS011;17892;52.080;9.006;2022-10-16T07:56:10;3.55;;;0.30;;
31262;SDS011;17892;52.080;9.006;2022-10-16T07:58:37;0.63;;;0.40;;
31262;SDS011;17892;52.080;9.006;2022-10-16T08:01:03;0.45;;;0.20;;
31262;SDS011;17892;52.080;9.006;2022-10-16T08:03:34;0.25;;;0.10;;
31262;SDS011;17892;52.080;9.006;2022-10-16T08:06:00;0.93;;;0.38;;
31262;SDS011;17892;52.080;9.006;2022-10-16T08:08:27;0.90;;;0.35;;
31262;SDS011;17892;52.080;9.006;2022-10-16T08:10:54;0.43;;;0.30;;
31262;SDS011;17892;52.080;9.006;2022-10-16T08:13:20;0.43;;;0.20;;
31262;SDS011;17892;52.080;9.006;2022-10-16T08:15:46;2.63;;;0.28;;
31262;SDS011;17892;52.080;9.006;2022-10-16T08:18:12;2.95;;;0.40;;
31262;SDS011;17892;52.080;9.006;2022-10-16T08:20:40;1.17;;;0.40;;
31262;SDS011;17892;52.080;9.006;2022-10-16T08:23:07;0.38;;;0.20;;
31262;SDS011;17892;52.080;9.006;2022-10-16T08:25:37;0.50;;;0.20;;
31262;SDS011;17892;52.080;9.006;2022-10-16T08:28:03;0.43;;;0.30;;
31262;SDS011;17892;52.080;9.006;2022-10-16T08:30:30;4.07;;;0.50;;
31262;SDS011;17892;52.080;9.006;2022-10-16T08:32:56;2.33;;;0.28;;
31262;SDS011;17892;52.080;9.006;2022-10-16T08:35:23;1.38;;;0.40;;
31262;SDS011;17892;52.080;9.006;2022-10-16T08:37:49;1.23;;;0.47;;
31262;SDS011;17892;52.080;9.006;2022-10-16T08:40:19;1.40;;;1.02;;
31262;SDS011;17892;52.080;9.006;2022-10-16T08:51:24;1.67;;;0.30;;
31262;SDS011;17892;52.080;9.006;2022-10-16T08:53:58;0.82;;;0.28;;
31262;SDS011;17892;52.080;9.006;2022-10-16T08:56:28;0.63;;;0.30;;
31262;SDS011;17892;52.080;9.006;2022-10-16T08:58:54;3.28;;;0.30;;
31262;SDS011;17892;52.080;9.006;2022-10-16T09:01:21;0.47;;;0.15;;
31262;SDS011;17892;52.080;9.006;2022-10-16T09:04:15;0.20;;;0.10;;
31262;SDS011;17892;52.080;9.006;2022-10-16T09:07:17;1.02;;;0.13;;
31262;SDS011;17892;52.080;9.006;2022-10-16T09:10:04;0.65;;;0.20;;
31262;SDS011;17892;52.080;9.006;2022-10-16T09:16:24;3.08;;;0.50;;
31262;SDS011;17892;52.080;9.006;2022-10-16T09:21:49;1.13;;;0.57;;
31262;SDS011;17892;52.080;9.006;2022-10-16T09:24:17;0.98;;;0.50;;
31262;SDS011;17892;52.080;9.006;2022-10-16T09:26:46;1.42;;;0.50;;
31262;SDS011;17892;52.080;9.006;2022-10-16T09:29:13;1.33;;;0.45;;
31262;SDS011;17892;52.080;9.006;2022-10-16T09:31:50;1.33;;;0.43;;
31262;SDS011;17892;52.080;9.006;2022-10-16T09:34:30;1.77;;;0.52;;
31262;SDS011;17892;52.080;9.006;2022-10-16T09:37:00;0.50;;;0.30;;
31262;SDS011;17892;52.080;9.006;2022-10-16T09:39:44;0.57;;;0.50;;
31262;SDS011;17892;52.080;9.006;2022-10-16T09:44:47;1.23;;;0.40;;
31262;SDS011;17892;52.080;9.006;2022-10-16T09:47:16;1.92;;;0.95;;
31262;SDS011;17892;52.080;9.006;2022-10-16T09:49:51;2.60;;;0.43;;
31262;SDS011;17892;52.080;9.006;2022-10-16T09:52:26;3.83;;;0.32;;
31262;SDS011;17892;52.080;9.006;2022-10-16T09:57:22;1.85;;;0.43;;
31262;SDS011;17892;52.080;9.006;2022-10-16T09:59:48;0.77;;;0.38;;
31262;SDS011;17892;52.080;9.006;2022-10-16T10:02:18;1.50;;;0.40;;
31262;SDS011;17892;52.080;9.006;2022-10-16T10:04:54;2.17;;;0.38;;
31262;SDS011;17892;52.080;9.006;2022-10-16T10:07:30;1.98;;;0.38;;
31262;SDS011;17892;52.080;9.006;2022-10-16T10:10:05;1.38;;;0.40;;
31262;SDS011;17892;52.080;9.006;2022-10-16T10:12:45;1.10;;;0.20;;
31262;SDS011;17892;52.080;9.006;2022-10-16T10:15:11;2.63;;;0.40;;
31262;SDS011;17892;52.080;9.006;2022-10-16T10:17:48;0.55;;;0.20;;
31262;SDS011;17892;52.080;9.006;2022-10-16T10:20:32;0.88;;;0.17;;
31262;SDS011;17892;52.080;9.006;2022-10-16T10:23:24;1.85;;;0.20;;
31262;SDS011;17892;52.080;9.006;2022-10-16T10:25:53;0.88;;;0.30;;
31262;SDS011;17892;52.080;9.006;2022-10-16T10:31:24;0.63;;;0.17;;
31262;SDS011;17892;52.080;9.006;2022-10-16T10:36:43;0.52;;;0.03;;
31262;SDS011;17892;52.080;9.006;2022-10-16T10:39:50;1.80;;;0.20;;
31262;SDS011;17892;52.080;9.006;2022-10-16T10:42:34;0.13;;;0.03;;
31262;SDS011;17892;52.080;9.006;2022-10-16T10:48:15;0.65;;;0.08;;
31262;SDS011;17892;52.080;9.006;2022-10-16T10:50:56;0.38;;;0.10;;
31262;SDS011;17892;52.080;9.006;2022-10-16T10:53:43;0.20;;;0.10;;
31262;SDS011;17892;52.080;9.006;2022-10-16T11:01:50;0.95;;;0.30;;
31262;SDS011;17892;52.080;9.006;2022-10-16T11:07:40;1.92;;;0.40;;
31262;SDS011;17892;52.080;9.006;2022-10-16T11:10:42;0.30;;;0.28;;
31262;SDS011;17892;52.080;9.006;2022-10-16T11:13:28;3.88;;;0.30;;
31262;SDS011;17892;52.080;9.006;2022-10-16T11:16:28;1.48;;;0.40;;
31262;SDS011;17892;52.080;9.006;2022-10-16T11:19:14;2.63;;;0.20;;
31262;SDS011;17892;52.080;9.006;2022-10-16T11:25:13;1.42;;;0.20;;
31262;SDS011;17892;52.080;9.006;2022-10-16T11:39:31;1.40;;;0.10;;
31262;SDS011;17892;52.080;9.006;2022-10-16T11:42:07;0.52;;;0.15;;
31262;SDS011;17892;52.080;9.006;2022-10-16T11:44:52;3.47;;;0.30;;
31262;SDS011;17892;52.080;9.006;2022-10-16T11:47:41;2.13;;;0.20;;
31262;SDS011;17892;52.080;9.006;2022-10-16T11:55:40;0.15;;;0.00;;
31262;SDS011;17892;52.080;9.006;2022-10-16T11:58:12;0.10;;;0.00;;
31262;SDS011;17892;52.080;9.006;2022-10-16T12:04:14;1.30;;;0.28;;
31262;SDS011;17892;52.080;9.006;2022-10-16T12:06:58;2.17;;;0.30;;
31262;SDS011;17892;52.080;9.006;2022-10-16T12:09:44;1.23;;;0.20;;
31262;SDS011;17892;52.080;9.006;2022-10-16T12:12:26;1.55;;;0.30;;
31262;SDS011;17892;52.080;9.006;2022-10-16T12:15:18;0.88;;;0.50;;
31262;SDS011;17892;52.080;9.006;2022-10-16T12:17:53;0.93;;;0.20;;
31262;SDS011;17892;52.080;9.006;2022-10-16T12:22:56;2.45;;;0.22;;
31262;SDS011;17892;52.080;9.006;2022-10-16T12:25:39;1.60;;;0.40;;
31262;SDS011;17892;52.080;9.006;2022-10-16T12:30:40;0.93;;;0.40;;
31262;SDS011;17892;52.080;9.006;2022-10-16T12:35:52;1.38;;;0.20;;
31262;SDS011;17892;52.080;9.006;2022-10-16T12:38:20;0.75;;;0.20;;
31262;SDS011;17892;52.080;9.006;2022-10-16T12:48:33;1.10;;;0.47;;
31262;SDS011;17892;52.080;9.006;2022-10-16T12:59:31;3.53;;;0.28;;
31262;SDS011;17892;52.080;9.006;2022-10-16T13:08:22;1.75;;;0.40;;
31262;SDS011;17892;52.080;9.006;2022-10-16T13:14:52;0.55;;;0.20;;
31262;SDS011;17892;52.080;9.006;2022-10-16T13:20:25;0.20;;;0.10;;
31262;SDS011;17892;52.080;9.006;2022-10-16T13:23:25;0.43;;;0.13;;
31262;SDS011;17892;52.080;9.006;2022-10-16T13:28:34;0.30;;;0.20;;
31262;SDS011;17892;52.080;9.006;2022-10-16T13:31:04;0.15;;;0.10;;
31262;SDS011;17892;52.080;9.006;2022-10-16T13:36:04;0.98;;;0.20;;
31262;SDS011;17892;52.080;9.006;2022-10-16T13:38:32;2.45;;;0.43;;
31262;SDS011;17892;52.080;9.006;2022-10-16T13:41:13;1.85;;;0.22;;
31262;SDS011;17892;52.080;9.006;2022-10-16T13:43:52;1.88;;;0.73;;
31262;SDS011;17892;52.080;9.006;2022-10-16T13:46:21;2.80;;;0.52;;
31262;SDS011;17892;52.080;9.006;2022-10-16T13:48:56;0.50;;;0.10;;
31262;SDS011;17892;52.080;9.006;2022-10-16T13:51:24;2.55;;;0.45;;
31262;SDS011;17892;52.080;9.006;2022-10-16T13:53:50;0.73;;;0.20;;
31262;SDS011;17892;52.080;9.006;2022-10-16T13:56:18;0.40;;;0.10;;
31262;SDS011;17892;52.080;9.006;2022-10-16T13:58:46;0.38;;;0.20;;
31262;SDS011;17892;52.080;9.006;2022-10-16T14:01:47;1.05;;;0.52;;
31262;SDS011;17892;52.080;9.006;2022-10-16T14:04:14;2.88;;;0.30;;
31262;SDS011;17892;52.080;9.006;2022-10-16T14:06:41;0.30;;;0.13;;
31262;SDS011;17892;52.080;9.006;2022-10-16T14:09:24;0.70;;;0.28;;
31262;SDS011;17892;52.080;9.006;2022-10-16T14:11:59;0.73;;;0.25;;
31262;SDS011;17892;52.080;9.006;2022-10-16T14:14:34;1.45;;;0.30;;
31262;SDS011;17892;52.080;9.006;2022-10-16T14:17:13;1.58;;;0.43;;
31262;SDS011;17892;52.080;9.006;2022-10-16T14:19:40;2.88;;;0.30;;
31262;SDS011;17892;52.080;9.006;2022-10-16T14:22:32;4.95;;;0.40;;
31262;SDS011;17892;52.080;9.006;2022-10-16T14:28:31;1.35;;;0.30;;
31262;SDS011;17892;52.080;9.006;2022-10-16T14:30:35;1.00;;;0.30;;
31262;SDS011;17892;52.080;9.006;2022-10-16T14:33:05;0.38;;;0.13;;
31262;SDS011;17892;52.080;9.006;2022-10-16T14:36:05;3.55;;;0.30;;
31262;SDS011;17892;52.080;9.006;2022-10-16T14:38:36;2.58;;;0.40;;
31262;SDS011;17892;52.080;9.006;2022-10-16T14:41:40;0.95;;;0.20;;
31262;SDS011;17892;52.080;9.006;2022-10-16T14:44:10;6.93;;;1.13;;
31262;SDS011;17892;52.080;9.006;2022-10-16T14:46:38;1.15;;;0.13;;
31262;SDS011;17892;52.080;9.006;2022-10-16T14:51:37;0.68;;;0.32;;
31262;SDS011;17892;52.080;9.006;2022-10-16T14:54:09;2.53;;;0.32;;
31262;SDS011;17892;52.080;9.006;2022-10-16T14:56:47;3.65;;;0.40;;
31262;SDS011;17892;52.080;9.006;2022-10-16T15:01:55;0.52;;;0.20;;
31262;SDS011;17892;52.080;9.006;2022-10-16T15:04:21;0.82;;;0.20;;
31262;SDS011;17892;52.080;9.006;2022-10-16T15:06:47;0.55;;;0.10;;
31262;SDS011;17892;52.080;9.006;2022-10-16T15:09:13;0.20;;;0.10;;
31262;SDS011;17892;52.080;9.006;2022-10-16T15:11:39;0.20;;;0.08;;
31262;SDS011;17892;52.080;9.006;2022-10-16T15:14:04;0.43;;;0.25;;
31262;SDS011;17892;52.080;9.006;2022-10-16T15:16:32;0.22;;;0.15;;
31262;SDS011;17892;52.080;9.006;2022-10-16T15:18:58;0.30;;;0.10;;
31262;SDS011;17892;52.080;9.006;2022-10-16T15:21:25;2.92;;;0.38;;
31262;SDS011;17892;52.080;9.006;2022-10-16T15:23:54;2.13;;;0.20;;
31262;SDS011;17892;52.080;9.006;2022-10-16T15:26:22;1.70;;;0.10;;
31262;SDS011;17892;52.080;9.006;2022-10-16T15:28:49;0.57;;;0.22;;
31262;SDS011;17892;52.080;9.006;2022-10-16T15:31:15;0.75;;;0.30;;
31262;SDS011;17892;52.080;9.006;2022-10-16T15:33:41;0.38;;;0.25;;
31262;SDS011;17892;52.080;9.006;2022-10-16T15:36:07;1.27;;;0.10;;
31262;SDS011;17892;52.080;9.006;2022-10-16T15:38:33;1.27;;;0.10;;
31262;SDS011;17892;52.080;9.006;2022-10-16T15:40:59;0.73;;;0.25;;
31262;SDS011;17892;52.080;9.006;2022-10-16T15:43:25;2.67;;;1.10;;
31262;SDS011;17892;52.080;9.006;2022-10-16T15:48:31;1.25;;;0.47;;
31262;SDS011;17892;52.080;9.006;2022-10-16T15:50:58;0.82;;;0.22;;
31262;SDS011;17892;52.080;9.006;2022-10-16T15:53:25;0.30;;;0.17;;
31262;SDS011;17892;52.080;9.006;2022-10-16T15:55:50;1.00;;;0.22;;
31262;SDS011;17892;52.080;9.006;2022-10-16T15:58:17;0.88;;;0.10;;
31262;SDS011;17892;52.080;9.006;2022-10-16T16:00:42;0.45;;;0.08;;
31262;SDS011;17892;52.080;9.006;2022-10-16T16:03:08;0.60;;;0.20;;
31262;SDS011;17892;52.080;9.006;2022-10-16T16:05:37;1.23;;;0.20;;
31262;SDS011;17892;52.080;9.006;2022-10-16T16:08:04;1.17;;;0.30;;
31262;SDS011;17892;52.080;9.006;2022-10-16T16:10:29;2.05;;;0.13;;
31262;SDS011;17892;52.080;9.006;2022-10-16T16:12:55;0.40;;;0.10;;
31262;SDS011;17892;52.080;9.006;2022-10-16T16:15:21;0.20;;;0.10;;
31262;SDS011;17892;52.080;9.006;2022-10-16T16:17:48;0.10;;;0.10;;
31262;SDS011;17892;52.080;9.006;2022-10-16T16:20:13;3.13;;;0.20;;
31262;SDS011;17892;52.080;9.006;2022-10-16T16:22:40;0.52;;;0.15;;
31262;SDS011;17892;52.080;9.006;2022-10-16T16:25:06;0.17;;;0.00;;
31262;SDS011;17892;52.080;9.006;2022-10-16T16:27:32;0.73;;;0.25;;
31262;SDS011;17892;52.080;9.006;2022-10-16T16:29:59;0.50;;;0.10;;
31262;SDS011;17892;52.080;9.006;2022-10-16T16:32:28;0.85;;;0.17;;
31262;SDS011;17892;52.080;9.006;2022-10-16T16:34:54;0.85;;;0.30;;
31262;SDS011;17892;52.080;9.006;2022-10-16T16:37:20;0.95;;;0.32;;
31262;SDS011;17892;52.080;9.006;2022-10-16T16:39:46;2.05;;;1.02;;
31262;SDS011;17892;52.080;9.006;2022-10-16T16:42:11;0.88;;;0.25;;
31262;SDS011;17892;52.080;9.006;2022-10-16T16:44:37;1.25;;;0.17;;
31262;SDS011;17892;52.080;9.006;2022-10-16T16:47:04;0.30;;;0.20;;
31262;SDS011;17892;52.080;9.006;2022-10-16T16:49:30;0.00;;;0.00;;
31262;SDS011;17892;52.080;9.006;2022-10-16T16:51:57;0.30;;;0.10;;
31262;SDS011;17892;52.080;9.006;2022-10-16T16:54:22;0.17;;;0.10;;
31262;SDS011;17892;52.080;9.006;2022-10-16T16:56:48;2.25;;;0.30;;
31262;SDS011;17892;52.080;9.006;2022-10-16T16:59:18;0.43;;;0.28;;
31262;SDS011;17892;52.080;9.006;2022-10-16T17:01:45;0.90;;;0.20;;
31262;SDS011;17892;52.080;9.006;2022-10-16T17:04:11;0.32;;;0.20;;
31262;SDS011;17892;52.080;9.006;2022-10-16T17:06:39;0.10;;;0.05;;
31262;SDS011;17892;52.080;9.006;2022-10-16T17:09:05;0.20;;;0.13;;
31262;SDS011;17892;52.080;9.006;2022-10-16T17:11:32;0.95;;;0.30;;
31262;SDS011;17892;52.080;9.006;2022-10-16T17:13:59;2.10;;;0.38;;
31262;SDS011;17892;52.080;9.006;2022-10-16T17:16:35;3.63;;;0.20;;
31262;SDS011;17892;52.080;9.006;2022-10-16T17:19:06;0.40;;;0.30;;
31262;SDS011;17892;52.080;9.006;2022-10-16T17:21:35;0.95;;;0.10;;
31262;SDS011;17892;52.080;9.006;2022-10-16T17:24:01;0.60;;;0.22;;
31262;SDS011;17892;52.080;9.006;2022-10-16T17:26:28;1.10;;;0.35;;
31262;SDS011;17892;52.080;9.006;2022-10-16T17:28:55;0.43;;;0.10;;
31262;SDS011;17892;52.080;9.006;2022-10-16T17:31:26;2.70;;;0.20;;
31262;SDS011;17892;52.080;9.006;2022-10-16T17:33:54;0.10;;;0.05;;